Time;durP1;ratioP1;P1;durP2;ratioP2;P2;SDS_P1;SDS_P2;PMS_P1;PMS_P2;Temp;Humidity;BMP_temperature;BMP_pressure;BME280_temperature;BME280_humidity;BME280_pressure;Samples;Min_cycle;Max_cycle;Signal;HPM_P1;HPM_P2
2023/01/10 00:15:20;;;;;;;6.70;2.60;;;;;;;-0.99;53.48;99735.77;105178;1280;613740;-39
2023/01/10 00:17:47;;;;;;;7.90;2.40;;;;;;;-0.88;53.14;99730.77;106407;1269;179193;-39
2023/01/10 00:20:15;;;;;;;6.40;2.70;;;;;;;-1.14;53.18;99734.52;106616;1266;61504;-39
2023/01/10 00:22:44;;;;;;;7.80;2.70;;;;;;;-1.31;53.19;99736.45;106681;1268;71268;-39
2023/01/10 00:25:11;;;;;;;6.30;2.50;;;;;;;-1.43;53.58;99730.96;106768;1266;70321;-39
2023/01/10 00:27:38;;;;;;;5.80;2.90;;;;;;;-1.52;53.92;99743.16;106735;1266;74129;-39
2023/01/10 00:30:12;;;;;;;7.60;2.40;;;;;;;-1.60;54.08;99749.45;106729;1266;61841;-39
2023/01/10 00:32:41;;;;;;;5.40;2.40;;;;;;;-1.70;54.37;99755.44;106345;1256;1003222;-39
2023/01/10 00:35:09;;;;;;;6.50;2.30;;;;;;;-1.77;54.36;99759.23;107111;1257;73621;-39
2023/01/10 00:37:37;;;;;;;9.90;2.70;;;;;;;-1.82;54.54;99761.83;107118;1258;71120;-39
2023/01/10 00:40:08;;;;;;;4.70;2.50;;;;;;;-1.87;54.82;99764.77;107150;1262;73189;-39
2023/01/10 00:45:23;;;;;;;8.90;3.00;;;;;;;-1.94;54.93;99771.25;107054;1262;60515;-39
2023/01/10 00:47:51;;;;;;;10.40;2.70;;;;;;;-1.98;55.28;99767.32;107068;1259;71509;-39
2023/01/10 00:50:18;;;;;;;3.10;2.10;;;;;;;-2.00;55.49;99758.61;107113;1259;69255;-39
2023/01/10 00:52:45;;;;;;;9.10;3.30;;;;;;;-2.02;55.30;99761.53;106338;1259;1002870;-39
2023/01/10 00:55:12;;;;;;;7.10;2.90;;;;;;;-2.05;55.77;99762.38;107093;1256;61409;-39
2023/01/10 00:57:39;;;;;;;6.00;2.60;;;;;;;-2.08;55.94;99758.50;106327;1257;1003754;-39
2023/01/10 01:00:08;;;;;;;5.60;2.40;;;;;;;-2.09;55.71;99759.52;107050;1259;59534;-39
2023/01/10 01:02:36;;;;;;;5.10;2.40;;;;;;;-2.09;55.53;99758.51;107134;1260;70113;-39
2023/01/10 01:05:04;;;;;;;7.70;2.80;;;;;;;-2.12;55.56;99763.08;107030;1262;74140;-39
2023/01/10 01:07:31;;;;;;;6.40;2.70;;;;;;;-2.14;55.99;99761.33;107142;1260;59890;-39
2023/01/10 01:12:44;;;;;;;6.30;3.10;;;;;;;-2.16;56.10;99772.84;106316;1256;1003695;-39
2023/01/10 01:15:11;;;;;;;7.60;2.70;;;;;;;-2.19;56.33;99770.79;107075;1259;69848;-39
2023/01/10 01:17:38;;;;;;;4.70;2.50;;;;;;;-2.20;56.45;99760.69;106320;1258;1003757;-39
2023/01/10 01:20:06;;;;;;;7.70;3.10;;;;;;;-2.20;56.73;99757.13;107059;1258;60608;-39
2023/01/10 01:22:34;;;;;;;11.40;2.70;;;;;;;-2.22;56.90;99759.09;106376;1259;1003111;-39
2023/01/10 01:25:03;;;;;;;13.70;3.20;;;;;;;-2.24;56.83;99760.85;107058;1260;74391;-39
2023/01/10 01:27:30;;;;;;;8.30;3.00;;;;;;;-2.35;56.96;99749.64;107075;1260;69517;-39
2023/01/10 01:29:58;;;;;;;7.30;2.80;;;;;;;-2.26;57.25;99766.05;106320;1259;1005487;-39
2023/01/10 01:32:25;;;;;;;8.80;2.90;;;;;;;-2.26;57.26;99774.23;107094;1262;60512;-39
2023/01/10 01:34:52;;;;;;;10.60;2.90;;;;;;;-2.27;56.83;99773.98;107092;1258;62511;-39
2023/01/10 01:37:19;;;;;;;11.20;3.60;;;;;;;-2.30;57.19;99769.93;107086;1259;74495;-39
2023/01/10 01:39:47;;;;;;;26.30;4.20;;;;;;;-2.29;57.18;99771.64;107100;1260;70156;-39
2023/01/10 01:42:28;;;;;;;10.10;2.90;;;;;;;-2.29;57.56;99772.59;106310;1260;1003751;-39
2023/01/10 01:45:07;;;;;;;8.00;2.90;;;;;;;-2.30;57.66;99769.19;107076;1260;60931;-39
2023/01/10 01:47:36;;;;;;;11.70;3.90;;;;;;;-2.32;57.76;99772.16;106336;1258;1003661;-39
2023/01/10 01:50:04;;;;;;;10.00;3.20;;;;;;;-2.33;58.11;99769.17;107137;1257;74516;-39
2023/01/10 01:52:33;;;;;;;6.70;3.20;;;;;;;-2.34;58.05;99770.62;107100;1263;69932;-39
2023/01/10 01:55:00;;;;;;;18.90;3.70;;;;;;;-2.35;58.19;99768.28;107138;1259;74074;-39
2023/01/10 01:57:28;;;;;;;13.00;3.20;;;;;;;-2.35;58.25;99766.21;107050;1260;60232;-39
2023/01/10 01:59:55;;;;;;;9.50;3.00;;;;;;;-2.35;58.19;99766.27;106337;1257;1003799;-39
2023/01/10 02:02:26;;;;;;;7.30;3.10;;;;;;;-2.37;58.29;99768.43;107065;1258;74409;-39
2023/01/10 02:04:56;;;;;;;14.30;3.30;;;;;;;-2.55;58.41;99745.70;106313;1262;1003316;-39
2023/01/10 02:07:23;;;;;;;8.00;3.10;;;;;;;-2.40;58.71;99772.95;107063;1259;74797;-39
2023/01/10 02:09:53;;;;;;;10.70;3.70;;;;;;;-2.41;58.74;99773.69;106307;1260;1002854;-39
2023/01/10 02:12:20;;;;;;;7.90;3.30;;;;;;;-2.42;58.89;99775.12;107088;1258;61711;-39
2023/01/10 02:14:48;;;;;;;8.30;2.90;;;;;;;-2.43;59.17;99773.10;107065;1257;75303;-39
2023/01/10 02:17:15;;;;;;;12.20;2.80;;;;;;;-2.44;58.85;99771.52;106351;1260;1003663;-39
2023/01/10 02:19:49;;;;;;;10.70;3.30;;;;;;;-2.44;59.15;99766.41;107056;1258;71711;-39
2023/01/10 02:22:38;;;;;;;11.30;3.00;;;;;;;-2.43;59.41;99764.17;107063;1262;61129;-39
2023/01/10 02:25:21;;;;;;;10.30;3.20;;;;;;;-2.42;59.29;99758.19;106336;1262;1003427;-39
2023/01/10 02:27:57;;;;;;;8.70;3.80;;;;;;;-2.45;59.24;99753.14;107061;1258;73376;-39
2023/01/10 02:30:46;;;;;;;8.80;3.50;;;;;;;-2.44;59.37;99757.92;107085;1259;70131;-39
2023/01/10 02:33:26;;;;;;;8.10;3.80;;;;;;;-2.45;59.37;99758.82;107068;1262;74053;-39
2023/01/10 02:35:55;;;;;;;;;;;;;;;-2.44;59.71;99762.54;107050;1262;59641;-39
2023/01/10 02:38:56;;;;;;;10.00;3.70;;;;;;;-2.51;59.37;99766.20;107072;1256;59339;-39
2023/01/10 02:41:32;;;;;;;9.00;4.00;;;;;;;-2.53;59.70;99767.95;107272;1261;74797;-39
2023/01/10 02:44:04;;;;;;;14.00;3.40;;;;;;;-2.52;59.73;99778.55;107074;1262;68487;-39
2023/01/10 02:46:31;;;;;;;11.10;3.60;;;;;;;-2.51;59.88;99775.16;107078;1260;74728;-39
2023/01/10 02:48:58;;;;;;;7.10;3.60;;;;;;;-2.48;60.16;99771.55;107001;1265;61747;-39
2023/01/10 02:51:27;;;;;;;6.90;3.80;;;;;;;-2.47;59.89;99766.30;107076;1259;61128;-40
2023/01/10 02:54:13;;;;;;;8.50;3.80;;;;;;;-2.46;59.67;99763.44;107114;1257;73186;-40
2023/01/10 02:56:59;;;;;;;9.10;4.10;;;;;;;-2.47;59.87;99760.02;107143;1258;68743;-40
2023/01/10 02:59:54;;;;;;;7.10;3.80;;;;;;;-2.47;59.81;99770.07;107033;1262;72718;-40
2023/01/10 03:03:01;;;;;;;8.30;3.50;;;;;;;-2.47;59.89;99770.17;106310;1258;1002927;-40
2023/01/10 03:05:31;;;;;;;11.90;3.60;;;;;;;-2.48;59.96;99768.48;106331;1259;1003002;-40
2023/01/10 03:08:22;;;;;;;12.00;4.20;;;;;;;-2.49;60.37;99768.00;107078;1257;73807;-40
2023/01/10 03:10:56;;;;;;;17.70;4.30;;;;;;;-2.50;60.35;99776.87;107095;1260;70250;-40
2023/01/10 03:13:23;;;;;;;11.20;4.30;;;;;;;-2.51;60.52;99788.11;107040;1261;74076;-40
2023/01/10 03:15:50;;;;;;;8.60;3.80;;;;;;;-2.49;60.89;99789.77;106294;1260;1002866;-40
2023/01/10 03:18:22;;;;;;;8.70;4.20;;;;;;;-2.38;60.93;99794.56;107040;1263;61946;-40
2023/01/10 03:20:50;;;;;;;8.90;4.30;;;;;;;-2.32;60.19;99793.19;105636;1259;1003755;-40
2023/01/10 03:23:17;;;;;;;11.10;4.40;;;;;;;-2.28;60.26;99787.77;106394;1259;1003768;-40
2023/01/10 03:25:45;;;;;;;8.80;4.20;;;;;;;-2.26;60.73;99790.81;107247;1258;73988;-40
2023/01/10 03:28:16;;;;;;;10.90;4.30;;;;;;;-2.26;60.47;99795.48;107102;1257;59793;-40
2023/01/10 03:30:49;;;;;;;10.00;4.50;;;;;;;-2.25;60.53;99802.22;107060;1260;60539;-40
2023/01/10 03:33:20;;;;;;;10.80;5.00;;;;;;;-2.27;60.57;99800.36;107154;1257;71842;-40
2023/01/10 03:35:59;;;;;;;9.60;4.60;;;;;;;-2.28;60.75;99802.21;106349;1262;1003328;-39
2023/01/10 03:38:31;;;;;;;14.80;5.00;;;;;;;-2.31;61.20;99798.71;106339;1262;1002908;-40
2023/01/10 03:41:03;;;;;;;11.30;5.10;;;;;;;-2.34;61.52;99804.98;107074;1262;59805;-40
2023/01/10 03:46:46;;;;;;;12.60;5.10;;;;;;;-2.34;61.94;99798.98;107104;1262;74522;-40
2023/01/10 03:49:13;;;;;;;14.00;5.30;;;;;;;-2.31;62.11;99801.95;107114;1257;70044;-40
2023/01/10 03:51:40;;;;;;;15.10;5.90;;;;;;;-2.32;62.34;99801.00;107058;1263;74792;-40
2023/01/10 03:54:08;;;;;;;19.60;5.60;;;;;;;-2.32;62.38;99795.79;107151;1262;61255;-40
2023/01/10 03:56:45;;;;;;;14.90;5.10;;;;;;;-2.33;62.59;99808.48;107081;1263;59666;-40
2023/01/10 03:59:12;;;;;;;14.90;5.20;;;;;;;-2.35;62.87;99812.20;107258;1256;73780;-40
2023/01/10 04:01:40;;;;;;;15.20;5.30;;;;;;;-2.37;62.99;99818.77;107086;1263;70927;-40
2023/01/10 04:04:07;;;;;;;20.10;5.10;;;;;;;-2.40;63.17;99817.23;106372;1258;1003088;-40
2023/01/10 04:06:34;;;;;;;11.10;5.20;;;;;;;-2.39;63.37;99822.44;107091;1258;63107;-40
2023/01/10 04:09:01;;;;;;;16.90;5.30;;;;;;;-2.35;63.62;99827.59;106345;1262;1002823;-40
2023/01/10 04:11:28;;;;;;;13.50;5.40;;;;;;;-2.29;63.87;99836.95;107119;1257;74724;-40
2023/01/10 04:13:55;;;;;;;14.50;5.40;;;;;;;-2.28;64.02;99836.15;107121;1262;67865;-40
2023/01/10 04:16:23;;;;;;;13.70;5.90;;;;;;;-2.29;64.17;99834.57;107119;1263;74168;-40
2023/01/10 04:18:50;;;;;;;15.20;5.50;;;;;;;-2.32;64.20;99828.13;107166;1257;60720;-40
2023/01/10 04:21:17;;;;;;;16.50;6.10;;;;;;;-2.35;64.46;99832.11;107096;1263;60154;-40
2023/01/10 04:23:44;;;;;;;15.60;5.70;;;;;;;-2.39;64.70;99833.05;107113;1257;73395;-40
2023/01/10 04:26:12;;;;;;;12.70;5.70;;;;;;;-2.43;64.76;99835.27;107122;1259;68724;-40
2023/01/10 04:28:39;;;;;;;15.40;6.00;;;;;;;-2.49;65.36;99835.27;107087;1258;74343;-40
2023/01/10 04:31:06;;;;;;;15.70;6.30;;;;;;;-2.46;65.65;99838.41;107110;1262;61188;-40
2023/01/10 04:33:33;;;;;;;15.10;6.50;;;;;;;-2.46;65.73;99844.23;107069;1258;62657;-40
2023/01/10 04:36:00;;;;;;;17.80;5.90;;;;;;;-2.50;65.82;99851.52;107103;1263;75318;-40
2023/01/10 04:38:27;;;;;;;14.20;6.30;;;;;;;-2.52;65.94;99849.22;107113;1264;69142;-40
2023/01/10 04:40:55;;;;;;;12.10;6.40;;;;;;;-2.53;66.16;99851.46;107077;1262;72889;-40
2023/01/10 04:43:25;;;;;;;20.20;6.60;;;;;;;-2.55;66.38;99855.27;107087;1262;61857;-40
2023/01/10 04:45:52;;;;;;;11.60;5.80;;;;;;;-2.52;66.57;99855.97;107125;1262;60502;-40
2023/01/10 04:48:20;;;;;;;12.70;6.10;;;;;;;-2.47;66.77;99855.77;107120;1262;75048;-40
2023/01/10 04:50:50;;;;;;;13.80;6.40;;;;;;;-2.48;66.61;99847.27;107143;1262;70117;-40
2023/01/10 04:53:18;;;;;;;17.60;6.70;;;;;;;-2.49;66.52;99849.06;107129;1258;75033;-40
2023/01/10 04:55:45;;;;;;;14.90;6.70;;;;;;;-2.50;66.70;99847.64;107096;1257;61061;-40
2023/01/10 04:58:12;;;;;;;14.00;5.70;;;;;;;-2.51;66.65;99851.52;107122;1264;60827;-40
2023/01/10 05:00:39;;;;;;;14.70;6.90;;;;;;;-2.53;66.57;99858.83;107093;1258;75402;-40
2023/01/10 05:03:07;;;;;;;14.80;5.90;;;;;;;-2.53;66.55;99868.48;107103;1262;70188;-40
2023/01/10 05:05:34;;;;;;;12.50;5.60;;;;;;;-2.50;66.12;99873.22;107087;1258;72815;-39
2023/01/10 05:08:01;;;;;;;13.00;5.40;;;;;;;-2.47;65.80;99879.80;107072;1262;60336;-39
2023/01/10 05:10:28;;;;;;;15.40;5.70;;;;;;;-2.48;65.31;99880.36;107110;1258;61675;-39
2023/01/10 05:12:56;;;;;;;20.00;6.50;;;;;;;-2.52;65.07;99877.73;107093;1257;73191;-41
2023/01/10 05:15:23;;;;;;;14.70;5.60;;;;;;;-2.54;65.29;99879.30;107102;1257;70104;-39
2023/01/10 05:17:56;;;;;;;15.00;5.90;;;;;;;-2.55;65.29;99880.42;107057;1263;74042;-39
2023/01/10 05:20:23;;;;;;;12.80;6.00;;;;;;;-2.57;65.49;99890.13;107129;1258;60971;-39
2023/01/10 05:22:51;;;;;;;16.00;6.30;;;;;;;-2.59;65.70;99892.14;107108;1262;60647;-39
2023/01/10 05:25:18;;;;;;;13.70;5.70;;;;;;;-2.61;65.71;99904.23;107102;1257;75614;-39
2023/01/10 05:27:45;;;;;;;17.80;5.80;;;;;;;-2.57;65.42;99907.96;107135;1257;71145;-39
2023/01/10 05:30:12;;;;;;;16.00;5.90;;;;;;;-2.66;65.38;99891.70;107123;1261;74108;-39
2023/01/10 05:32:40;;;;;;;16.80;5.80;;;;;;;-2.59;65.24;99902.92;107111;1261;60576;-39
2023/01/10 05:35:07;;;;;;;16.30;6.10;;;;;;;-2.62;65.27;99901.42;107109;1258;61470;-39
2023/01/10 05:37:35;;;;;;;14.00;6.70;;;;;;;-2.65;65.11;99904.54;107198;1257;76098;-39
2023/01/10 10:41:40;;;;;;;15.70;9.00;;;;;;;-1.98;61.68;100006.34;105052;1282;613713;-40
2023/01/10 10:44:35;;;;;;;20.60;9.50;;;;;;;-1.84;60.59;99991.70;106436;1268;325381;-40
2023/01/10 10:47:02;;;;;;;18.00;9.30;;;;;;;-2.15;61.18;99982.74;105942;1264;1003461;-40
2023/01/10 10:49:33;;;;;;;19.80;9.20;;;;;;;-2.36;61.68;99983.40;106554;1264;73844;-40
2023/01/10 10:52:00;;;;;;;16.60;10.00;;;;;;;-2.42;62.18;99973.07;106788;1264;68008;-40
2023/01/10 10:54:27;;;;;;;18.90;9.40;;;;;;;-2.47;62.42;99971.83;106648;1264;71696;-40
2023/01/10 10:56:55;;;;;;;17.80;8.90;;;;;;;-2.54;62.64;99970.20;106743;1266;60717;-40
2023/01/10 10:59:22;;;;;;;18.90;9.90;;;;;;;-2.60;62.74;99961.63;106008;1264;1002989;-40
2023/01/10 11:01:50;;;;;;;18.80;9.20;;;;;;;-2.68;62.89;99960.68;106710;1263;72688;-40
2023/01/10 11:04:20;;;;;;;18.50;9.00;;;;;;;-2.78;63.03;99968.75;106674;1264;68829;-40
2023/01/10 11:06:48;;;;;;;18.20;9.90;;;;;;;-2.76;63.35;99972.47;107061;1259;74270;-40
2023/01/10 11:09:28;;;;;;;21.30;9.70;;;;;;;-2.80;63.18;99980.36;107075;1256;61256;-40
2023/01/10 11:11:58;;;;;;;22.30;9.40;;;;;;;-2.81;63.60;99984.48;107046;1256;60400;-40
2023/01/10 11:14:50;;;;;;;23.70;9.30;;;;;;;-2.84;63.65;99984.58;106576;1253;1002849;-40
2023/01/10 11:17:19;;;;;;;22.90;9.20;;;;;;;-2.87;63.73;99986.69;107452;1253;70235;-41
2023/01/10 11:20:03;;;;;;;24.30;9.60;;;;;;;-2.90;63.85;99993.83;107345;1253;73158;-40
2023/01/10 11:22:38;;;;;;;25.50;9.50;;;;;;;-2.83;63.80;100003.22;107342;1254;60608;-40
2023/01/10 11:25:15;;;;;;;19.80;10.00;;;;;;;-2.84;63.64;99999.43;107387;1253;59595;-40
2023/01/10 11:27:50;;;;;;;25.70;9.90;;;;;;;-2.89;63.39;99992.83;106581;1254;1003118;-40
2023/01/10 11:30:25;;;;;;;36.80;11.00;;;;;;;-2.95;63.10;99993.99;107416;1259;70392;-40
2023/01/10 11:33:07;;;;;;;30.20;10.50;;;;;;;-3.01;63.87;99990.77;106691;1253;1014607;-40
2023/01/10 11:35:35;;;;;;;34.70;11.50;;;;;;;-3.05;63.91;99991.29;107438;1253;63555;-40
2023/01/10 11:38:12;;;;;;;23.30;8.60;;;;;;;-3.05;63.35;99997.02;107479;1253;59504;-40
2023/01/10 11:40:39;;;;;;;26.50;10.70;;;;;;;-3.11;63.43;100011.14;107443;1253;74464;-40
2023/01/10 11:43:31;;;;;;;25.50;10.00;;;;;;;-3.14;63.89;100017.00;107168;1253;68672;-40
2023/01/10 11:46:20;;;;;;;24.90;10.40;;;;;;;-3.19;63.82;100017.86;107407;1253;72590;-40
2023/01/10 11:49:09;;;;;;;23.10;9.70;;;;;;;-3.24;64.33;100019.24;107383;1253;62817;-40
2023/01/10 11:51:44;;;;;;;24.90;9.00;;;;;;;-3.14;64.25;100020.60;106559;1253;1003638;-40
2023/01/10 11:54:25;;;;;;;26.00;9.60;;;;;;;-3.12;64.26;100017.86;107293;1253;72321;-40
2023/01/10 11:56:58;;;;;;;29.80;9.20;;;;;;;-3.13;63.86;100008.84;107481;1253;71069;-40
2023/01/10 11:59:25;;;;;;;20.80;9.30;;;;;;;-3.10;64.09;100015.91;107422;1253;74102;-40
2023/01/10 12:02:11;;;;;;;29.10;9.50;;;;;;;-3.12;64.06;100013.56;106363;1256;1002919;-40
2023/01/10 12:04:40;;;;;;;27.50;10.00;;;;;;;-3.10;64.17;100017.98;107397;1253;61386;-40
2023/01/10 12:07:08;;;;;;;21.90;9.70;;;;;;;-3.03;63.79;100011.89;107442;1253;71858;-40
2023/01/10 12:09:56;;;;;;;40.90;10.00;;;;;;;-3.01;63.13;100009.50;107322;1260;68985;-40
2023/01/10 12:12:29;;;;;;;29.50;9.40;;;;;;;-3.03;63.19;100018.40;107402;1253;71366;-40
2023/01/10 12:14:57;;;;;;;26.20;9.40;;;;;;;-3.01;63.52;100023.30;106658;1253;1002923;-40
2023/01/10 12:17:28;;;;;;;27.80;11.10;;;;;;;-3.00;63.66;100029.51;107412;1259;59635;-40
2023/01/10 12:19:59;;;;;;;24.30;9.90;;;;;;;-2.98;63.43;100029.44;107410;1258;74418;-40
2023/01/10 12:22:31;;;;;;;24.90;8.70;;;;;;;-2.98;63.51;100029.27;107312;1253;70888;-41
2023/01/10 12:24:59;;;;;;;24.50;8.70;;;;;;;-2.86;63.77;100027.16;107366;1253;73876;-40
2023/01/10 12:27:26;;;;;;;24.00;8.70;;;;;;;-2.79;62.98;100030.63;107221;1254;59717;-40
2023/01/10 12:30:04;;;;;;;26.10;9.50;;;;;;;-2.79;62.25;100020.05;107278;1253;60556;-40
2023/01/10 12:32:35;;;;;;;28.10;9.30;;;;;;;-2.82;62.52;100011.92;107334;1253;74395;-40
2023/01/10 12:35:13;;;;;;;25.20;9.90;;;;;;;-2.83;63.14;100008.48;106663;1253;1003483;-40
2023/01/10 12:37:50;;;;;;;26.50;9.40;;;;;;;-2.84;62.91;100009.63;107302;1256;72769;-40
2023/01/10 12:40:24;;;;;;;22.70;9.00;;;;;;;-2.91;62.18;99998.92;107253;1260;60206;-41
2023/01/10 12:45:52;;;;;;;27.20;9.50;;;;;;;-2.94;62.50;100010.94;107345;1253;74513;-40
2023/01/10 12:48:26;;;;;;;;;;;;;;;-2.96;62.84;100019.15;107305;1253;70363;-40
2023/01/10 12:50:57;;;;;;;28.80;8.90;;;;;;;-3.02;62.90;100028.55;107380;1256;72813;-40
2023/01/10 12:53:33;;;;;;;22.90;8.80;;;;;;;-3.09;62.52;100038.41;106635;1258;1003410;-41
2023/01/10 12:56:03;;;;;;;29.70;8.50;;;;;;;-3.08;62.66;100056.88;107379;1258;60822;-40
2023/01/10 12:58:43;;;;;;;26.00;9.80;;;;;;;-3.10;62.82;100067.48;107329;1253;73136;-40
2023/01/10 13:01:16;;;;;;;22.60;8.30;;;;;;;-3.00;62.91;100078.95;107350;1253;69135;-40
2023/01/10 13:03:43;;;;;;;28.20;9.30;;;;;;;-2.93;62.98;100080.13;105887;1253;1003135;-40
2023/01/10 13:06:20;;;;;;;21.20;9.10;;;;;;;-2.92;62.52;100088.25;107269;1253;61931;-40
2023/01/10 13:08:47;;;;;;;24.80;9.00;;;;;;;-2.91;62.45;100092.52;106558;1253;1002869;-40
2023/01/10 13:11:15;;;;;;;22.50;9.60;;;;;;;-2.92;62.12;100093.35;107361;1253;75488;-40
2023/01/10 13:13:44;;;;;;;21.90;8.70;;;;;;;-2.94;62.26;100098.58;107331;1253;70180;-40
2023/01/10 13:16:47;;;;;;;19.90;9.30;;;;;;;-2.93;62.52;100104.75;107375;1253;74531;-40
2023/01/10 13:19:18;;;;;;;24.50;9.10;;;;;;;-2.94;62.31;100107.80;107360;1257;62932;-40
2023/01/10 13:21:46;;;;;;;21.40;8.90;;;;;;;-2.92;61.68;100098.34;106723;1253;1002712;-40
2023/01/10 13:24:26;;;;;;;26.60;9.20;;;;;;;-2.92;61.53;100107.67;107420;1253;75443;-40
2023/01/10 13:26:55;;;;;;;28.30;9.50;;;;;;;-2.96;61.65;100103.71;107315;1253;69449;-41
2023/01/10 13:29:26;;;;;;;28.10;10.10;;;;;;;-2.99;61.55;100108.02;107328;1253;74514;-41
2023/01/10 13:31:58;;;;;;;23.00;9.70;;;;;;;-3.04;61.65;100105.77;107268;1253;59779;-40
2023/01/10 13:34:30;;;;;;;21.90;8.50;;;;;;;-3.05;61.89;100109.42;107275;1253;60536;-40
2023/01/10 13:37:03;;;;;;;26.70;9.70;;;;;;;-3.08;61.89;100102.40;107380;1253;75347;-40
2023/01/10 13:39:32;;;;;;;18.30;7.30;;;;;;;-3.12;61.60;100106.29;106609;1253;1006033;-40
2023/01/10 13:45:00;;;;;;;20.30;8.90;;;;;;;-3.10;61.77;100114.77;107336;1253;59952;-40
2023/01/10 13:47:42;;;;;;;32.70;8.50;;;;;;;-3.11;61.73;100112.71;107392;1253;61688;-40
2023/01/10 13:50:21;;;;;;;29.60;10.00;;;;;;;-3.14;61.91;100113.42;106635;1253;1003849;-40
2023/01/10 13:52:49;;;;;;;;;;;;;;;-3.17;61.80;100111.59;107380;1253;70177;-40
2023/01/10 13:55:24;;;;;;;18.00;8.40;;;;;;;-3.26;62.06;100106.57;106580;1256;1002886;-40
2023/01/10 13:57:58;;;;;;;21.10;8.70;;;;;;;-3.29;62.07;100107.11;106566;1253;1003275;-40
2023/01/10 14:03:45;;;;;;;26.90;9.50;;;;;;;-3.28;61.91;100108.19;107411;1253;74452;-40
2023/01/10 14:06:26;;;;;;;28.00;8.60;;;;;;;-3.25;62.13;100108.33;107359;1254;69956;-40
2023/01/10 14:09:06;;;;;;;21.60;9.60;;;;;;;-3.25;62.06;100111.41;107284;1253;72836;-40
2023/01/10 20:23:38;;;;;;;25.80;8.50;;;;;;;-3.42;75.64;100262.10;105033;1283;613322;-40
2023/01/10 20:26:10;;;;;;;23.90;7.60;;;;;;;-3.21;73.95;100266.09;106420;1267;204687;-40
2023/01/10 20:28:38;;;;;;;18.20;7.10;;;;;;;-3.41;73.41;100262.85;106590;1266;61356;-40
2023/01/10 20:31:06;;;;;;;26.10;7.70;;;;;;;-3.53;73.26;100265.04;106598;1272;71247;-40
2023/01/10 20:33:33;;;;;;;32.20;8.00;;;;;;;-3.63;73.46;100267.70;106571;1272;69919;-40
2023/01/10 20:36:03;;;;;;;26.10;8.10;;;;;;;-3.68;73.71;100271.35;105902;1267;1003067;-40
2023/01/10 20:38:31;;;;;;;25.30;8.00;;;;;;;-3.69;73.61;100271.66;105977;1272;1003040;-40
2023/01/10 20:40:59;;;;;;;25.80;6.90;;;;;;;-3.74;73.64;100275.09;106661;1267;61664;-40
2023/01/10 20:43:27;;;;;;;31.70;7.30;;;;;;;-3.82;73.81;100274.91;106741;1267;70994;-40
2023/01/10 20:45:54;;;;;;;19.90;7.40;;;;;;;-3.86;74.29;100273.93;106756;1266;70478;-40
2023/01/10 20:48:21;;;;;;;18.30;7.30;;;;;;;-3.86;74.65;100274.43;106716;1267;74816;-40
2023/01/10 20:50:48;;;;;;;22.30;7.70;;;;;;;-3.84;74.98;100274.93;106749;1267;59401;-40
2023/01/10 20:53:15;;;;;;;19.90;8.00;;;;;;;-3.88;75.18;100275.23;106734;1267;62244;-40
2023/01/10 20:55:42;;;;;;;24.10;8.50;;;;;;;-3.97;75.33;100275.59;106755;1267;74383;-40
2023/01/10 20:58:16;;;;;;;23.80;7.60;;;;;;;-4.00;75.48;100276.66;106734;1266;68839;-40
2023/01/10 21:00:43;;;;;;;35.50;9.30;;;;;;;-4.02;75.53;100277.63;106732;1266;73272;-40
2023/01/10 21:03:11;;;;;;;21.70;7.70;;;;;;;-4.06;75.46;100284.50;106729;1273;59846;-40
2023/01/10 21:05:38;;;;;;;18.20;8.30;;;;;;;-4.11;75.75;100284.63;106719;1266;61717;-40
2023/01/10 21:08:05;;;;;;;21.60;7.70;;;;;;;-4.12;75.60;100292.72;106704;1266;74063;-40
2023/01/10 21:10:32;;;;;;;16.60;6.70;;;;;;;-4.08;75.70;100299.67;106766;1267;69565;-40
2023/01/10 21:13:00;;;;;;;20.90;7.60;;;;;;;-4.11;75.38;100299.95;105962;1270;1002922;-40
2023/01/10 21:15:27;;;;;;;30.50;8.80;;;;;;;-4.17;75.42;100303.71;106725;1272;60106;-40
2023/01/10 21:17:55;;;;;;;22.30;7.20;;;;;;;-4.22;75.42;100308.45;105988;1272;1003292;-40
2023/01/10 21:20:22;;;;;;;20.00;7.20;;;;;;;-4.18;75.55;100314.86;106763;1265;73664;-40
2023/01/10 21:22:49;;;;;;;20.40;7.90;;;;;;;-4.19;75.30;100315.69;106626;1267;70407;-40
2023/01/10 21:25:16;;;;;;;36.30;7.90;;;;;;;-4.22;75.17;100321.52;106586;1270;74022;-40
2023/01/10 21:27:43;;;;;;;21.50;7.40;;;;;;;-4.28;75.40;100327.67;106546;1271;62487;-40
2023/01/10 21:30:11;;;;;;;19.70;8.40;;;;;;;-4.26;75.38;100331.23;106686;1267;62047;-40
2023/01/10 21:32:39;;;;;;;28.20;8.50;;;;;;;-4.27;75.49;100335.15;106791;1270;72701;-40
2023/01/10 21:35:07;;;;;;;19.60;8.00;;;;;;;-4.33;75.38;100330.18;106743;1266;71037;-40
2023/01/10 21:37:34;;;;;;;23.20;8.00;;;;;;;-4.38;75.37;100334.38;106625;1270;74156;-40
2023/01/10 21:40:04;;;;;;;17.10;6.20;;;;;;;-4.32;75.50;100324.69;106733;1266;60399;-40
2023/01/10 21:42:34;;;;;;;24.60;7.50;;;;;;;-4.33;75.28;100329.21;106686;1268;60195;-40
2023/01/10 21:45:01;;;;;;;24.90;8.00;;;;;;;-4.39;74.91;100332.45;106746;1267;73708;-40
2023/01/10 21:47:28;;;;;;;29.20;7.50;;;;;;;-4.47;74.67;100331.19;106713;1267;69211;-40
2023/01/10 21:49:55;;;;;;;26.30;7.50;;;;;;;-4.48;74.87;100335.40;106718;1267;73180;-40
2023/01/10 21:52:22;;;;;;;17.90;7.10;;;;;;;-4.49;75.18;100334.98;106703;1267;59727;-40
2023/01/10 21:54:49;;;;;;;20.60;7.60;;;;;;;-4.50;75.22;100335.05;106713;1265;62323;-40
2023/01/10 21:57:20;;;;;;;18.70;6.70;;;;;;;-4.51;75.81;100336.68;106740;1265;74473;-40
